Time,TemperatureF,DewpointF,PressureIn,WindDirection,WindDirectionDegrees,WindSpeedMPH,WindSpeedGustMPH,Humidity,HourlyPrecipIn,Conditions,Clouds,dailyrainin,SolarRadiationWatts/m^2,SoftwareType,DateUTC
2013-05-02 00:22:00,35.0,22.0,-100.00,SSE,151,1.0,2.0,58,0.00,,,0.00,0.000000,,2013-05-02 08:22:00,
2013-05-02 00:32:00,35.0,22.0,-100.00,SSE,151,1.0,2.0,58,0.00,,,0.00,0.000000,,2013-05-02 08:32:00,
2013-05-02 00:42:00,35.0,22.0,-100.00,SSE,151,1.0,2.0,58,0.00,,,0.00,0.000000,,2013-05-02 08:42:00,
2013-05-02 00:52:00,35.0,22.0,-100.00,SSE,151,1.0,2.0,58,0.00,,,0.00,0.000000,,2013-05-02 08:52:00,
2013-05-02 01:21:00,35.0,21.0,-100.00,SSE,158,1.0,4.0,57,0.00,,,0.00,0.000000,,2013-05-02 09:21:00,
2013-05-02 01:32:00,35.0,21.0,-100.00,SSE,158,1.0,4.0,57,0.00,,,0.00,0.000000,,2013-05-02 09:32:00,
2013-05-02 01:42:00,35.0,21.0,-100.00,SSE,158,1.0,4.0,57,0.00,,,0.00,0.000000,,2013-05-02 09:42:00,
2013-05-02 01:52:00,35.0,21.0,-100.00,SSE,158,1.0,4.0,57,0.00,,,0.00,0.000000,,2013-05-02 09:52:00,
2013-05-02 02:22:00,34.0,21.0,-100.00,WSW,243,1.0,5.0,59,0.00,,,0.00,0.000000,,2013-05-02 10:22:00,
2013-05-02 02:32:00,34.0,21.0,-100.00,WSW,243,1.0,5.0,59,0.00,,,0.00,0.000000,,2013-05-02 10:32:00,
2013-05-02 02:42:00,34.0,21.0,-100.00,WSW,243,1.0,5.0,59,0.00,,,0.00,0.000000,,2013-05-02 10:42:00,
2013-05-02 02:52:00,34.0,21.0,-100.00,WSW,243,1.0,5.0,59,0.00,,,0.00,0.000000,,2013-05-02 10:52:00,
2013-05-02 03:22:00,34.0,23.0,-100.00,SSW,208,3.0,7.0,65,0.00,,,0.00,0.000000,,2013-05-02 11:22:00,
2013-05-02 03:32:00,34.0,23.0,-100.00,SSW,208,3.0,7.0,65,0.00,,,0.00,0.000000,,2013-05-02 11:32:00,
2013-05-02 03:42:00,34.0,23.0,-100.00,SSW,208,3.0,7.0,65,0.00,,,0.00,0.000000,,2013-05-02 11:42:00,
2013-05-02 03:52:00,34.0,23.0,-100.00,SSW,208,3.0,7.0,65,0.00,,,0.00,0.000000,,2013-05-02 11:52:00,
2013-05-02 04:21:00,34.0,25.0,-100.00,NNE,24,1.0,5.0,68,0.00,,,0.00,0.000000,,2013-05-02 12:21:00,
2013-05-02 04:32:00,34.0,25.0,-100.00,NNE,24,1.0,5.0,68,0.00,,,0.00,0.000000,,2013-05-02 12:32:00,
2013-05-02 04:42:00,34.0,25.0,-100.00,NNE,24,1.0,5.0,68,0.00,,,0.00,0.000000,,2013-05-02 12:42:00,
2013-05-02 04:52:00,34.0,25.0,-100.00,NNE,24,1.0,5.0,68,0.00,,,0.00,0.000000,,2013-05-02 12:52:00,
2013-05-02 05:21:00,33.0,25.0,-100.00,ENE,65,1.0,4.0,71,0.00,,,0.00,0.000000,,2013-05-02 13:21:00,
2013-05-02 05:31:00,33.0,25.0,-100.00,ENE,65,1.0,4.0,71,0.00,,,0.00,0.000000,,2013-05-02 13:31:00,
2013-05-02 05:41:00,33.0,25.0,-100.00,ENE,65,1.0,4.0,71,0.00,,,0.00,0.000000,,2013-05-02 13:41:00,
2013-05-02 05:52:00,33.0,25.0,-100.00,ENE,65,1.0,4.0,71,0.00,,,0.00,0.000000,,2013-05-02 13:52:00,
2013-05-02 06:22:00,32.0,27.0,-100.00,NE,52,3.0,5.0,82,0.00,,,0.00,0.000000,,2013-05-02 14:22:00,
2013-05-02 06:32:00,32.0,27.0,-100.00,NE,52,3.0,5.0,82,0.00,,,0.00,0.000000,,2013-05-02 14:32:00,
2013-05-02 06:42:00,32.0,27.0,-100.00,NE,52,3.0,5.0,82,0.00,,,0.00,0.000000,,2013-05-02 14:42:00,
2013-05-02 06:52:00,32.0,27.0,-100.00,NE,52,3.0,5.0,82,0.00,,,0.00,0.000000,,2013-05-02 14:52:00,
2013-05-02 07:22:00,32.0,30.0,-100.00,NE,38,2.0,5.0,91,0.00,,,0.00,12.000000,,2013-05-02 15:22:00,
2013-05-02 07:33:00,32.0,30.0,-100.00,NE,38,2.0,5.0,91,0.00,,,0.00,12.000000,,2013-05-02 15:33:00,
2013-05-02 07:43:00,32.0,30.0,-100.00,NE,38,2.0,5.0,91,0.00,,,0.00,12.000000,,2013-05-02 15:43:00,
2013-05-02 08:22:00,33.0,31.0,-100.00,West,264,1.0,4.0,93,0.00,,,0.00,39.000000,,2013-05-02 16:22:00,
2013-05-02 08:32:00,33.0,31.0,-100.00,West,264,1.0,4.0,93,0.00,,,0.00,39.000000,,2013-05-02 16:32:00,
2013-05-02 08:43:00,33.0,31.0,-100.00,West,264,1.0,4.0,93,0.00,,,0.00,39.000000,,2013-05-02 16:43:00,
2013-05-02 08:52:00,33.0,31.0,-100.00,West,264,1.0,4.0,93,0.00,,,0.00,39.000000,,2013-05-02 16:52:00,
2013-05-02 09:22:00,34.0,32.0,-100.00,North,359,3.0,5.0,93,0.02,,,0.02,83.000000,,2013-05-02 17:22:00,
2013-05-02 09:31:00,34.0,32.0,-100.00,North,359,3.0,5.0,93,0.02,,,0.02,83.000000,,2013-05-02 17:31:00,
2013-05-02 09:42:00,34.0,32.0,-100.00,North,359,3.0,5.0,93,0.02,,,0.02,83.000000,,2013-05-02 17:42:00,
2013-05-02 09:51:00,34.0,32.0,-100.00,North,359,3.0,5.0,93,0.02,,,0.02,83.000000,,2013-05-02 17:51:00,
2013-05-02 10:21:00,35.0,32.0,-100.00,North,7,3.0,5.0,90,0.01,,,0.03,135.000000,,2013-05-02 18:21:00,
2013-05-02 10:31:00,35.0,32.0,-100.00,North,7,3.0,5.0,90,0.01,,,0.03,135.000000,,2013-05-02 18:31:00,
2013-05-02 10:41:00,35.0,32.0,-100.00,North,7,3.0,5.0,90,0.01,,,0.03,135.000000,,2013-05-02 18:41:00,
2013-05-02 10:51:00,35.0,32.0,-100.00,North,7,3.0,5.0,90,0.01,,,0.03,135.000000,,2013-05-02 18:51:00,
2013-05-02 11:21:00,36.0,33.0,-100.00,North,358,3.0,5.0,89,0.01,,,0.04,188.000000,,2013-05-02 19:21:00,
2013-05-02 11:31:00,36.0,33.0,-100.00,North,358,3.0,5.0,89,0.01,,,0.04,188.000000,,2013-05-02 19:31:00,
2013-05-02 11:41:00,36.0,33.0,-100.00,North,358,3.0,5.0,89,0.01,,,0.04,188.000000,,2013-05-02 19:41:00,
2013-05-02 11:52:00,36.0,33.0,-100.00,North,358,3.0,5.0,89,0.01,,,0.04,188.000000,,2013-05-02 19:52:00,
2013-05-02 12:22:00,38.0,34.0,-100.00,NNW,342,4.0,6.0,87,0.00,,,0.04,275.000000,,2013-05-02 20:22:00,
2013-05-02 12:32:00,38.0,34.0,-100.00,NNW,342,4.0,6.0,87,0.00,,,0.04,275.000000,,2013-05-02 20:32:00,
2013-05-02 12:41:00,38.0,34.0,-100.00,NNW,342,4.0,6.0,87,0.00,,,0.04,275.000000,,2013-05-02 20:41:00,
2013-05-02 12:52:00,38.0,34.0,-100.00,NNW,342,4.0,6.0,87,0.00,,,0.04,275.000000,,2013-05-02 20:52:00,
2013-05-02 13:21:00,39.0,34.0,-100.00,NNW,343,4.0,7.0,83,0.00,,,0.04,372.000000,,2013-05-02 21:21:00,
2013-05-02 13:33:00,39.0,34.0,-100.00,NNW,343,4.0,7.0,83,0.00,,,0.04,372.000000,,2013-05-02 21:33:00,
2013-05-02 13:42:00,39.0,34.0,-100.00,NNW,343,4.0,7.0,83,0.00,,,0.04,372.000000,,2013-05-02 21:42:00,
2013-05-02 13:53:00,39.0,34.0,-100.00,NNW,343,4.0,7.0,83,0.00,,,0.04,372.000000,,2013-05-02 21:53:00,
2013-05-02 14:22:00,40.0,35.0,-100.00,NW,320,3.0,7.0,83,0.00,,,0.04,329.000000,,2013-05-02 22:22:00,
2013-05-02 14:32:00,40.0,35.0,-100.00,NW,320,3.0,7.0,83,0.00,,,0.04,329.000000,,2013-05-02 22:32:00,
2013-05-02 14:42:00,40.0,35.0,-100.00,NW,320,3.0,7.0,83,0.00,,,0.04,329.000000,,2013-05-02 22:42:00,
2013-05-02 14:52:00,40.0,35.0,-100.00,NW,320,3.0,7.0,83,0.00,,,0.04,329.000000,,2013-05-02 22:52:00,
2013-05-02 15:22:00,41.0,35.0,-100.00,WNW,296,4.0,7.0,78,0.00,,,0.04,378.000000,,2013-05-02 23:22:00,
2013-05-02 15:32:00,41.0,35.0,-100.00,WNW,296,4.0,7.0,78,0.00,,,0.04,378.000000,,2013-05-02 23:32:00,
2013-05-02 15:42:00,41.0,35.0,-100.00,WNW,296,4.0,7.0,78,0.00,,,0.04,378.000000,,2013-05-02 23:42:00,
2013-05-02 15:51:00,41.0,35.0,-100.00,WNW,296,4.0,7.0,78,0.00,,,0.04,378.000000,,2013-05-02 23:51:00,
2013-05-02 16:21:00,42.0,36.0,-100.00,NW,316,5.0,8.0,78,0.00,,,0.04,350.000000,,2013-05-03 00:21:00,
2013-05-02 16:31:00,42.0,36.0,-100.00,NW,316,5.0,8.0,78,0.00,,,0.04,350.000000,,2013-05-03 00:31:00,
2013-05-02 16:41:00,42.0,36.0,-100.00,NW,316,5.0,8.0,78,0.00,,,0.04,350.000000,,2013-05-03 00:41:00,
2013-05-02 16:52:00,42.0,36.0,-100.00,NW,316,5.0,8.0,78,0.00,,,0.04,350.000000,,2013-05-03 00:52:00,
2013-05-02 17:21:00,41.0,34.0,-100.00,NW,320,4.0,7.0,77,0.00,,,0.04,332.000000,,2013-05-03 01:21:00,
2013-05-02 17:31:00,41.0,34.0,-100.00,NW,320,4.0,7.0,77,0.00,,,0.04,332.000000,,2013-05-03 01:31:00,
2013-05-02 17:41:00,41.0,34.0,-100.00,NW,320,4.0,7.0,77,0.00,,,0.04,332.000000,,2013-05-03 01:41:00,
2013-05-02 17:52:00,41.0,34.0,-100.00,NW,320,4.0,7.0,77,0.00,,,0.04,332.000000,,2013-05-03 01:52:00,
2013-05-02 18:21:00,40.0,31.0,-100.00,West,262,5.0,10.0,69,0.00,,,0.04,244.000000,,2013-05-03 02:21:00,
2013-05-02 18:32:00,40.0,31.0,-100.00,West,262,5.0,10.0,69,0.00,,,0.04,244.000000,,2013-05-03 02:32:00,
2013-05-02 18:41:00,40.0,31.0,-100.00,West,262,5.0,10.0,69,0.00,,,0.04,244.000000,,2013-05-03 02:41:00,
2013-05-02 18:52:00,40.0,31.0,-100.00,West,262,5.0,10.0,69,0.00,,,0.04,244.000000,,2013-05-03 02:52:00,
2013-05-02 19:21:00,40.0,33.0,-100.00,SSW,204,3.0,12.0,75,0.00,,,0.04,171.000000,,2013-05-03 03:21:00,
2013-05-02 19:33:00,40.0,33.0,-100.00,SSW,204,3.0,12.0,75,0.00,,,0.04,171.000000,,2013-05-03 03:33:00,
2013-05-02 19:42:00,40.0,33.0,-100.00,SSW,204,3.0,12.0,75,0.00,,,0.04,171.000000,,2013-05-03 03:42:00,
2013-05-02 19:52:00,40.0,33.0,-100.00,SSW,204,3.0,12.0,75,0.00,,,0.04,171.000000,,2013-05-03 03:52:00,
2013-05-02 20:22:00,38.0,31.0,-100.00,WNW,293,4.0,7.0,75,0.00,,,0.04,83.000000,,2013-05-03 04:22:00,
2013-05-02 20:32:00,38.0,31.0,-100.00,WNW,293,4.0,7.0,75,0.00,,,0.04,83.000000,,2013-05-03 04:32:00,
2013-05-02 20:42:00,38.0,31.0,-100.00,WNW,293,4.0,7.0,75,0.00,,,0.04,83.000000,,2013-05-03 04:42:00,
2013-05-02 20:52:00,38.0,31.0,-100.00,WNW,293,4.0,7.0,75,0.00,,,0.04,83.000000,,2013-05-03 04:52:00,
2013-05-02 21:21:00,38.0,29.0,-100.00,WSW,242,7.0,20.0,71,0.01,,,0.05,41.000000,,2013-05-03 05:21:00,
2013-05-02 21:32:00,38.0,29.0,-100.00,WSW,242,7.0,20.0,71,0.01,,,0.05,41.000000,,2013-05-03 05:32:00,
2013-05-02 21:42:00,38.0,29.0,-100.00,WSW,242,7.0,20.0,71,0.01,,,0.05,41.000000,,2013-05-03 05:42:00,
2013-05-02 21:52:00,38.0,29.0,-100.00,WSW,242,7.0,20.0,71,0.01,,,0.05,41.000000,,2013-05-03 05:52:00,
2013-05-02 22:21:00,37.0,29.0,-100.00,NW,321,6.0,18.0,74,0.00,,,0.05,12.000000,,2013-05-03 06:21:00,
2013-05-02 22:32:00,37.0,29.0,-100.00,NW,321,6.0,18.0,74,0.00,,,0.05,12.000000,,2013-05-03 06:32:00,
2013-05-02 22:42:00,37.0,29.0,-100.00,NW,321,6.0,18.0,74,0.00,,,0.05,12.000000,,2013-05-03 06:42:00,
2013-05-02 22:51:00,37.0,29.0,-100.00,NW,321,6.0,18.0,74,0.00,,,0.05,12.000000,,2013-05-03 06:51:00,
2013-05-02 23:21:00,38.0,28.0,-100.00,WNW,286,6.0,17.0,68,0.00,,,0.05,0.000000,,2013-05-03 07:21:00,
2013-05-02 23:31:00,38.0,28.0,-100.00,WNW,286,6.0,17.0,68,0.00,,,0.05,0.000000,,2013-05-03 07:31:00,
2013-05-02 23:42:00,38.0,28.0,-100.00,WNW,286,6.0,17.0,68,0.00,,,0.05,0.000000,,2013-05-03 07:42:00,
2013-05-02 23:52:00,38.0,28.0,-100.00,WNW,286,6.0,17.0,68,0.00,,,0.05,0.000000,,2013-05-03 07:52:00,